Time,TemperatureF,DewpointF,PressureIn,WindDirection,WindDirectionDegrees,WindSpeedMPH,WindSpeedGustMPH,Humidity,HourlyPrecipIn,Conditions,Clouds,dailyrainin,SoftwareType,DateUTC
2013-05-07 00:01:00,50.1,44.2,30.18,SSE,150,0.0,0.0,80,0.00,,---,0.00,VWS V14.01,2013-05-07 04:01:00,
2013-05-07 00:02:00,50.1,44.5,30.18,SSE,150,0.0,0.0,81,0.00,,---,0.00,VWS V14.01,2013-05-07 04:02:00,
2013-05-07 00:04:00,49.9,44.3,30.18,SSE,150,0.0,0.0,81,0.00,,---,0.00,VWS V14.01,2013-05-07 04:04:00,
2013-05-07 00:06:00,49.9,44.3,30.18,SSE,150,0.0,0.0,81,0.00,,---,0.00,VWS V14.01,2013-05-07 04:06:00,
2013-05-07 00:08:00,49.8,44.2,30.17,SSE,150,0.0,0.0,81,0.00,,---,0.00,VWS V14.01,2013-05-07 04:08:00,
2013-05-07 00:13:00,49.6,44.3,30.18,SSE,150,0.0,0.0,82,0.00,,---,0.00,VWS V14.01,2013-05-07 04:13:00,
2013-05-07 00:19:00,49.5,44.2,30.18,SSE,150,0.0,0.0,82,0.00,,---,0.00,VWS V14.01,2013-05-07 04:19:00,
2013-05-07 00:24:00,49.4,44.1,30.17,SSE,150,0.0,0.0,82,0.00,,---,0.00,VWS V14.01,2013-05-07 04:24:00,
2013-05-07 00:29:00,49.2,44.3,30.17,SSE,150,0.0,0.0,83,0.00,,---,0.00,VWS V14.01,2013-05-07 04:29:00,
2013-05-07 00:34:00,49.2,44.3,30.17,SSE,150,0.0,0.0,83,0.00,,---,0.00,VWS V14.01,2013-05-07 04:34:00,
2013-05-07 00:40:00,49.1,44.2,30.17,SSE,150,0.0,0.0,83,0.00,,---,0.00,VWS V14.01,2013-05-07 04:40:00,
2013-05-07 00:45:00,48.9,44.0,30.17,SSE,150,0.0,0.0,83,0.00,,---,0.00,VWS V14.01,2013-05-07 04:45:00,
2013-05-07 00:50:00,48.8,43.9,30.17,SSE,150,0.0,0.0,83,0.00,,---,0.00,VWS V14.01,2013-05-07 04:50:00,
2013-05-07 00:55:00,48.6,43.7,30.17,SSE,150,0.0,0.0,83,0.00,,---,0.00,VWS V14.01,2013-05-07 04:55:00,
2013-05-07 01:00:00,48.3,43.7,30.17,SSE,150,0.0,0.0,84,0.00,,---,0.00,VWS V14.01,2013-05-07 05:00:00,
2013-05-07 01:05:00,48.2,43.6,30.17,SSE,150,0.0,0.0,84,0.00,,---,0.00,VWS V14.01,2013-05-07 05:05:00,
2013-05-07 01:10:00,48.0,43.4,30.16,SSE,150,0.0,0.0,84,0.00,,---,0.00,VWS V14.01,2013-05-07 05:10:00,
2013-05-07 01:15:00,48.0,43.7,30.16,SSE,150,0.0,0.0,85,0.00,,---,0.00,VWS V14.01,2013-05-07 05:15:00,
2013-05-07 01:20:00,47.9,43.6,30.16,SSE,150,0.0,0.0,85,0.00,,---,0.00,VWS V14.01,2013-05-07 05:20:00,
2013-05-07 01:25:00,47.7,43.7,30.16,SSE,150,0.0,0.0,86,0.00,,---,0.00,VWS V14.01,2013-05-07 05:25:00,
2013-05-07 01:30:00,47.6,43.6,30.16,SSE,150,0.0,0.0,86,0.00,,---,0.00,VWS V14.01,2013-05-07 05:30:00,
2013-05-07 01:35:00,47.4,43.4,30.16,SSE,150,0.0,0.0,86,0.00,,---,0.00,VWS V14.01,2013-05-07 05:35:00,
2013-05-07 01:40:00,47.1,43.1,30.16,SSE,150,0.0,0.0,86,0.00,,---,0.00,VWS V14.01,2013-05-07 05:40:00,
2013-05-07 01:46:00,47.0,43.0,30.16,SSE,150,0.0,0.0,86,0.00,,---,0.00,VWS V14.01,2013-05-07 05:46:00,
2013-05-07 01:51:00,46.8,42.8,30.16,SSE,150,0.0,0.0,86,0.00,,---,0.00,VWS V14.01,2013-05-07 05:51:00,
2013-05-07 01:57:00,46.8,42.8,30.16,SSE,150,0.0,0.0,86,0.00,,---,0.00,VWS V14.01,2013-05-07 05:57:00,
2013-05-07 02:02:00,46.7,43.0,30.16,SSE,150,0.0,0.0,87,0.00,,---,0.00,VWS V14.01,2013-05-07 06:02:00,
2013-05-07 02:08:00,46.5,42.8,30.15,SSE,150,0.0,0.0,87,0.00,,---,0.00,VWS V14.01,2013-05-07 06:08:00,
2013-05-07 02:13:00,46.4,42.8,30.15,SSE,150,0.0,0.0,87,0.00,,---,0.00,VWS V14.01,2013-05-07 06:13:00,
2013-05-07 02:18:00,46.2,42.8,30.15,SSE,150,0.0,0.0,88,0.00,,---,0.00,VWS V14.01,2013-05-07 06:18:00,
2013-05-07 02:23:00,46.1,42.8,30.15,SSE,150,0.0,0.0,88,0.00,,---,0.00,VWS V14.01,2013-05-07 06:23:00,
2013-05-07 02:28:00,46.0,42.3,30.15,SSE,150,0.0,0.0,87,0.00,,---,0.00,VWS V14.01,2013-05-07 06:28:00,
2013-05-07 02:33:00,45.7,42.4,30.15,SSE,150,0.0,0.0,88,0.00,,---,0.00,VWS V14.01,2013-05-07 06:33:00,
2013-05-07 02:38:00,45.5,42.2,30.15,SSE,150,0.0,0.0,88,0.00,,---,0.00,VWS V14.01,2013-05-07 06:38:00,
2013-05-07 02:43:00,45.4,42.1,30.14,SSE,150,0.0,0.0,88,0.00,,---,0.00,VWS V14.01,2013-05-07 06:43:00,
2013-05-07 02:48:00,45.4,42.1,30.14,SSE,150,0.0,0.0,88,0.00,,---,0.00,VWS V14.01,2013-05-07 06:48:00,
2013-05-07 02:53:00,45.2,41.9,30.14,SSE,150,0.0,0.0,88,0.00,,---,0.00,VWS V14.01,2013-05-07 06:53:00,
2013-05-07 02:59:00,45.2,42.2,30.14,SSE,150,0.0,0.0,89,0.00,,---,0.00,VWS V14.01,2013-05-07 06:59:00,
2013-05-07 03:05:00,45.1,42.1,30.14,SSE,150,0.0,0.0,89,0.00,,---,0.00,VWS V14.01,2013-05-07 07:05:00,
2013-05-07 03:10:00,45.1,42.1,30.15,SSE,150,0.0,0.0,89,0.00,,---,0.00,VWS V14.01,2013-05-07 07:10:00,
2013-05-07 03:15:00,44.9,41.9,30.15,SSE,150,0.0,0.0,89,0.00,,---,0.00,VWS V14.01,2013-05-07 07:15:00,
2013-05-07 03:21:00,44.9,41.9,30.15,SSE,150,0.0,0.0,89,0.00,,---,0.00,VWS V14.01,2013-05-07 07:21:00,
2013-05-07 03:27:00,44.8,41.8,30.15,SSE,150,0.0,0.0,89,0.00,,---,0.00,VWS V14.01,2013-05-07 07:27:00,
2013-05-07 03:32:00,44.6,41.6,30.15,SSE,150,0.0,0.0,89,0.00,,---,0.00,VWS V14.01,2013-05-07 07:32:00,
2013-05-07 03:37:00,44.5,41.5,30.15,SSE,150,0.0,0.0,89,0.00,,---,0.00,VWS V14.01,2013-05-07 07:37:00,
2013-05-07 03:42:00,44.5,41.8,30.15,SSE,150,0.0,0.0,90,0.00,,---,0.00,VWS V14.01,2013-05-07 07:42:00,
2013-05-07 03:48:00,44.3,41.6,30.15,SSE,150,0.0,0.0,90,0.00,,---,0.00,VWS V14.01,2013-05-07 07:48:00,
2013-05-07 03:54:00,44.3,41.6,30.15,SSE,150,0.0,0.0,90,0.00,,---,0.00,VWS V14.01,2013-05-07 07:54:00,
2013-05-07 03:59:00,44.2,41.5,30.15,SSE,150,0.0,0.0,90,0.00,,---,0.00,VWS V14.01,2013-05-07 07:59:00,
2013-05-07 04:04:00,44.1,41.4,30.15,SSE,150,0.0,0.0,90,0.00,,---,0.00,VWS V14.01,2013-05-07 08:04:00,
2013-05-07 04:09:00,43.9,41.2,30.15,SSE,150,0.0,0.0,90,0.00,,---,0.00,VWS V14.01,2013-05-07 08:09:00,
2013-05-07 04:14:00,43.9,41.2,30.15,SSE,150,0.0,0.0,90,0.00,,---,0.00,VWS V14.01,2013-05-07 08:14:00,
2013-05-07 04:20:00,43.8,41.1,30.15,SSE,150,0.0,0.0,90,0.00,,---,0.00,VWS V14.01,2013-05-07 08:20:00,
2013-05-07 04:26:00,43.5,40.8,30.15,SSE,150,0.0,0.0,90,0.00,,---,0.00,VWS V14.01,2013-05-07 08:26:00,
2013-05-07 04:31:00,43.3,40.6,30.15,SSE,150,0.0,0.0,90,0.00,,---,0.00,VWS V14.01,2013-05-07 08:31:00,
2013-05-07 04:36:00,43.3,40.6,30.14,SSE,150,0.0,0.0,90,0.00,,---,0.00,VWS V14.01,2013-05-07 08:36:00,
2013-05-07 04:41:00,43.2,40.8,30.14,SSE,150,0.0,0.0,91,0.00,,---,0.00,VWS V14.01,2013-05-07 08:41:00,
2013-05-07 04:46:00,43.2,40.8,30.14,SSE,150,0.0,0.0,91,0.00,,---,0.00,VWS V14.01,2013-05-07 08:46:00,
2013-05-07 04:51:00,42.9,40.2,30.14,SSE,150,0.0,0.0,90,0.00,,---,0.00,VWS V14.01,2013-05-07 08:51:00,
2013-05-07 04:56:00,42.8,40.1,30.14,SSE,150,0.0,0.0,90,0.00,,---,0.00,VWS V14.01,2013-05-07 08:56:00,
2013-05-07 05:01:00,42.8,40.4,30.14,SSE,150,0.0,0.0,91,0.00,,---,0.00,VWS V14.01,2013-05-07 09:01:00,
2013-05-07 05:07:00,42.8,40.4,30.14,SSE,150,0.0,0.0,91,0.00,,---,0.00,VWS V14.01,2013-05-07 09:07:00,
2013-05-07 05:12:00,42.8,40.4,30.14,SSE,150,0.0,0.0,91,0.00,,---,0.00,VWS V14.01,2013-05-07 09:12:00,
2013-05-07 05:18:00,42.8,40.4,30.14,SSE,150,0.0,0.0,91,0.00,,---,0.00,VWS V14.01,2013-05-07 09:18:00,
2013-05-07 05:23:00,42.8,40.6,30.14,SE,142,0.0,0.0,92,0.00,,---,0.00,VWS V14.01,2013-05-07 09:23:00,
2013-05-07 05:28:00,43.1,40.9,30.14,SE,142,0.0,0.0,92,0.00,,---,0.00,VWS V14.01,2013-05-07 09:28:00,
2013-05-07 05:33:00,43.2,41.0,30.14,NNW,333,0.0,1.0,92,0.00,,---,0.00,VWS V14.01,2013-05-07 09:33:00,
2013-05-07 05:39:00,43.3,41.1,30.14,NNW,336,0.0,0.0,92,0.00,,---,0.00,VWS V14.01,2013-05-07 09:39:00,
2013-05-07 05:44:00,43.2,41.0,30.14,NNW,336,0.0,0.0,92,0.00,,---,0.00,VWS V14.01,2013-05-07 09:44:00,
2013-05-07 05:49:00,42.9,40.7,30.14,NNW,336,0.0,0.0,92,0.00,,---,0.00,VWS V14.01,2013-05-07 09:49:00,
2013-05-07 05:54:00,42.6,40.4,30.14,NNW,336,0.0,0.0,92,0.00,,---,0.00,VWS V14.01,2013-05-07 09:54:00,
2013-05-07 05:59:00,42.5,40.3,30.14,NNW,336,0.0,0.0,92,0.00,,---,0.00,VWS V14.01,2013-05-07 09:59:00,
2013-05-07 06:04:00,42.3,40.2,30.14,NNW,336,0.0,0.0,92,0.00,,---,0.00,VWS V14.01,2013-05-07 10:04:00,
2013-05-07 06:09:00,42.2,40.0,30.14,NNW,336,0.0,0.0,92,0.00,,---,0.00,VWS V14.01,2013-05-07 10:09:00,
2013-05-07 06:14:00,42.2,40.0,30.15,NNW,336,0.0,0.0,92,0.00,,---,0.00,VWS V14.01,2013-05-07 10:14:00,
2013-05-07 06:19:00,42.1,40.0,30.15,NNW,336,0.0,0.0,92,0.00,,---,0.00,VWS V14.01,2013-05-07 10:19:00,
2013-05-07 06:24:00,42.1,40.0,30.15,NNW,336,0.0,0.0,92,0.00,,---,0.00,VWS V14.01,2013-05-07 10:24:00,
2013-05-07 06:30:00,42.1,40.0,30.15,NNW,336,0.0,0.0,92,0.00,,---,0.00,VWS V14.01,2013-05-07 10:30:00,
2013-05-07 06:35:00,42.1,40.0,30.15,NNW,336,0.0,0.0,92,0.00,,---,0.00,VWS V14.01,2013-05-07 10:35:00,
2013-05-07 06:40:00,42.2,40.0,30.15,NNW,336,0.0,0.0,92,0.00,,---,0.00,VWS V14.01,2013-05-07 10:40:00,
2013-05-07 06:45:00,42.2,40.0,30.15,NNW,336,0.0,0.0,92,0.00,,---,0.00,VWS V14.01,2013-05-07 10:45:00,
2013-05-07 06:50:00,42.5,40.6,30.16,NNW,336,0.0,0.0,93,0.00,,---,0.00,VWS V14.01,2013-05-07 10:50:00,
2013-05-07 06:55:00,42.9,41.0,30.15,NNW,336,0.0,0.0,93,0.00,,---,0.00,VWS V14.01,2013-05-07 10:55:00,
2013-05-07 07:00:00,43.3,41.7,30.16,NNW,336,0.0,0.0,94,0.00,,---,0.00,VWS V14.01,2013-05-07 11:00:00,
2013-05-07 07:05:00,43.8,42.2,30.15,NNW,336,0.0,0.0,94,0.00,,---,0.00,VWS V14.01,2013-05-07 11:05:00,
2013-05-07 07:10:00,44.1,42.5,30.15,NNW,336,0.0,0.0,94,0.00,,---,0.00,VWS V14.01,2013-05-07 11:10:00,
2013-05-07 07:15:00,44.3,42.7,30.15,NNW,336,0.0,0.0,94,0.00,,---,0.00,VWS V14.01,2013-05-07 11:15:00,
2013-05-07 07:20:00,44.6,43.0,30.15,NNW,336,0.0,0.0,94,0.00,,---,0.00,VWS V14.01,2013-05-07 11:20:00,
2013-05-07 07:25:00,44.9,43.3,30.15,NNW,336,0.0,0.0,94,0.00,,---,0.00,VWS V14.01,2013-05-07 11:25:00,
2013-05-07 07:30:00,45.2,43.6,30.15,NNW,336,0.0,0.0,94,0.00,,---,0.00,VWS V14.01,2013-05-07 11:30:00,
2013-05-07 07:35:00,45.7,44.3,30.16,NNW,336,0.0,0.0,95,0.00,,---,0.00,VWS V14.01,2013-05-07 11:35:00,
2013-05-07 07:40:00,46.0,44.7,30.15,NNW,329,0.0,0.0,95,0.00,,---,0.00,VWS V14.01,2013-05-07 11:40:00,
2013-05-07 07:45:00,46.1,44.8,30.15,NNW,337,0.0,1.0,95,0.00,,---,0.00,VWS V14.01,2013-05-07 11:45:00,
2013-05-07 07:50:00,46.4,45.0,30.15,North,351,0.0,1.0,95,0.00,,---,0.00,VWS V14.01,2013-05-07 11:50:00,
2013-05-07 07:56:00,46.8,45.5,30.16,North,9,0.0,0.0,95,0.00,,---,0.00,VWS V14.01,2013-05-07 11:56:00,
2013-05-07 08:01:00,47.1,45.7,30.16,North,9,0.0,0.0,95,0.00,,---,0.00,VWS V14.01,2013-05-07 12:01:00,
2013-05-07 08:07:00,47.6,46.2,30.16,North,5,0.0,1.0,95,0.00,,---,0.00,VWS V14.01,2013-05-07 12:07:00,
2013-05-07 08:12:00,48.2,46.6,30.16,North,5,0.0,0.0,94,0.00,,---,0.00,VWS V14.01,2013-05-07 12:12:00,
2013-05-07 08:17:00,48.6,47.0,30.17,North,5,0.0,0.0,94,0.00,,---,0.00,VWS V14.01,2013-05-07 12:17:00,
2013-05-07 08:22:00,49.1,47.2,30.16,North,5,0.0,1.0,93,0.00,,---,0.00,VWS V14.01,2013-05-07 12:22:00,
2013-05-07 08:27:00,49.6,47.7,30.17,North,5,0.0,0.0,93,0.00,,---,0.00,VWS V14.01,2013-05-07 12:27:00,
2013-05-07 08:32:00,50.1,48.2,30.16,North,5,0.0,0.0,93,0.00,,---,0.00,VWS V14.01,2013-05-07 12:32:00,
2013-05-07 08:37:00,50.7,48.5,30.16,North,5,0.0,0.0,92,0.00,,---,0.00,VWS V14.01,2013-05-07 12:37:00,
2013-05-07 08:42:00,51.3,48.8,30.16,North,5,0.0,1.0,91,0.00,,---,0.00,VWS V14.01,2013-05-07 12:42:00,
2013-05-07 08:47:00,51.9,48.8,30.16,North,5,0.0,0.0,89,0.00,,---,0.00,VWS V14.01,2013-05-07 12:47:00,
2013-05-07 08:53:00,52.9,48.5,30.16,North,360,0.0,0.0,85,0.00,,---,0.00,VWS V14.01,2013-05-07 12:53:00,
2013-05-07 08:59:00,53.6,48.6,30.16,North,360,0.0,0.0,83,0.00,,---,0.00,VWS V14.01,2013-05-07 12:59:00,
2013-05-07 09:04:00,54.4,48.7,30.16,North,360,0.0,0.0,81,0.00,,---,0.00,VWS V14.01,2013-05-07 13:04:00,
2013-05-07 09:09:00,55.6,48.9,30.16,North,360,0.0,0.0,78,0.00,,---,0.00,VWS V14.01,2013-05-07 13:09:00,
2013-05-07 09:14:00,56.9,49.1,30.16,North,360,0.0,0.0,75,0.00,,---,0.00,VWS V14.01,2013-05-07 13:14:00,
2013-05-07 09:19:00,58.0,49.4,30.16,North,355,0.0,0.0,73,0.00,,---,0.00,VWS V14.01,2013-05-07 13:19:00,
2013-05-07 09:24:00,58.9,49.5,30.17,North,360,0.0,0.0,71,0.00,,---,0.00,VWS V14.01,2013-05-07 13:24:00,
2013-05-07 09:29:00,59.6,48.6,30.17,South,169,0.0,0.0,67,0.00,,---,0.00,VWS V14.01,2013-05-07 13:29:00,
2013-05-07 09:34:00,60.5,49.1,30.17,South,186,0.0,0.0,66,0.00,,---,0.00,VWS V14.01,2013-05-07 13:34:00,
2013-05-07 09:40:00,61.3,49.5,30.17,ESE,106,0.0,0.0,65,0.00,,---,0.00,VWS V14.01,2013-05-07 13:40:00,
2013-05-07 09:45:00,62.3,49.1,30.17,NNE,32,0.0,0.0,62,0.00,,---,0.00,VWS V14.01,2013-05-07 13:45:00,
2013-05-07 09:50:00,62.9,48.8,30.17,North,360,0.0,1.0,60,0.00,,---,0.00,VWS V14.01,2013-05-07 13:50:00,
2013-05-07 09:55:00,63.7,49.1,30.16,North,360,0.0,0.0,59,0.00,,---,0.00,VWS V14.01,2013-05-07 13:55:00,
2013-05-07 10:00:00,64.5,49.4,30.16,North,5,0.0,0.0,58,0.00,,---,0.00,VWS V14.01,2013-05-07 14:00:00,
2013-05-07 10:06:00,65.2,49.1,30.16,NE,55,0.0,1.0,56,0.00,,---,0.00,VWS V14.01,2013-05-07 14:06:00,
2013-05-07 10:11:00,65.5,48.4,30.16,NNE,16,3.0,3.0,54,0.00,,---,0.00,VWS V14.01,2013-05-07 14:11:00,
2013-05-07 10:16:00,65.8,49.7,30.16,South,181,6.0,6.0,56,0.00,,---,0.00,VWS V14.01,2013-05-07 14:16:00,
2013-05-07 10:21:00,66.1,48.5,30.16,South,178,0.0,1.0,53,0.00,,---,0.00,VWS V14.01,2013-05-07 14:21:00,
2013-05-07 10:27:00,66.4,48.8,30.17,ESE,112,0.0,1.0,53,0.00,,---,0.00,VWS V14.01,2013-05-07 14:27:00,
2013-05-07 10:32:00,66.8,48.6,30.17,SSW,205,2.0,2.0,52,0.00,,---,0.00,VWS V14.01,2013-05-07 14:32:00,
2013-05-07 10:37:00,67.1,48.4,30.17,SE,128,1.0,2.0,51,0.00,,---,0.00,VWS V14.01,2013-05-07 14:37:00,
2013-05-07 10:42:00,67.3,49.6,30.17,SE,125,0.0,3.0,53,0.00,,---,0.00,VWS V14.01,2013-05-07 14:42:00,
2013-05-07 10:47:00,67.4,49.2,30.17,South,180,0.0,0.0,52,0.00,,---,0.00,VWS V14.01,2013-05-07 14:47:00,
2013-05-07 10:52:00,68.1,49.3,30.16,South,171,0.0,2.0,51,0.00,,---,0.00,VWS V14.01,2013-05-07 14:52:00,
2013-05-07 10:58:00,68.6,48.7,30.17,ESE,121,1.0,2.0,49,0.00,,---,0.00,VWS V14.01,2013-05-07 14:58:00,
2013-05-07 11:03:00,68.9,49.5,30.16,WNW,302,0.0,2.0,50,0.00,,---,0.00,VWS V14.01,2013-05-07 15:03:00,
2013-05-07 11:09:00,69.3,48.8,30.16,SSW,194,0.0,1.0,48,0.00,,---,0.00,VWS V14.01,2013-05-07 15:09:00,
2013-05-07 11:14:00,69.9,49.9,30.16,South,180,2.0,4.0,49,0.00,,---,0.00,VWS V14.01,2013-05-07 15:14:00,
2013-05-07 11:19:00,69.9,50.4,30.16,North,5,0.0,1.0,50,0.00,,---,0.00,VWS V14.01,2013-05-07 15:19:00,
2013-05-07 11:24:00,70.6,50.0,30.16,SW,221,0.0,1.0,48,0.00,,---,0.00,VWS V14.01,2013-05-07 15:24:00,
2013-05-07 11:29:00,70.9,50.2,30.16,ESE,114,0.0,1.0,48,0.00,,---,0.00,VWS V14.01,2013-05-07 15:29:00,
2013-05-07 11:34:00,70.9,48.5,30.16,SW,225,0.0,0.0,45,0.00,,---,0.00,VWS V14.01,2013-05-07 15:34:00,
2013-05-07 11:40:00,71.1,49.9,30.16,SSW,192,2.0,2.0,47,0.00,,---,0.00,VWS V14.01,2013-05-07 15:40:00,
2013-05-07 11:45:00,70.9,49.1,30.15,SSW,194,1.0,4.0,46,0.00,,---,0.00,VWS V14.01,2013-05-07 15:45:00,
2013-05-07 11:50:00,70.9,49.1,30.15,South,175,0.0,5.0,46,0.00,,---,0.00,VWS V14.01,2013-05-07 15:50:00,
2013-05-07 11:55:00,71.3,49.5,30.15,SE,135,2.0,5.0,46,0.00,,---,0.00,VWS V14.01,2013-05-07 15:55:00,
2013-05-07 12:00:00,71.6,49.8,30.15,South,183,0.0,2.0,46,0.00,,---,0.00,VWS V14.01,2013-05-07 16:00:00,
2013-05-07 12:05:00,71.5,49.1,30.15,SSE,156,0.0,2.0,45,0.00,,---,0.00,VWS V14.01,2013-05-07 16:05:00,
2013-05-07 12:11:00,72.1,51.3,30.15,North,349,4.0,4.0,48,0.00,,---,0.00,VWS V14.01,2013-05-07 16:11:00,
2013-05-07 12:16:00,72.3,51.5,30.15,SSE,167,2.0,2.0,48,0.00,,---,0.00,VWS V14.01,2013-05-07 16:16:00,
2013-05-07 12:21:00,72.5,51.2,30.15,ESE,115,0.0,1.0,47,0.00,,---,0.00,VWS V14.01,2013-05-07 16:21:00,
2013-05-07 12:27:00,72.5,51.7,30.15,South,180,1.0,2.0,48,0.00,,---,0.00,VWS V14.01,2013-05-07 16:27:00,
2013-05-07 12:33:00,73.2,51.8,30.15,SSE,157,1.0,2.0,47,0.00,,---,0.00,VWS V14.01,2013-05-07 16:33:00,
2013-05-07 12:38:00,73.3,51.9,30.14,SSW,208,0.0,1.0,47,0.00,,---,0.00,VWS V14.01,2013-05-07 16:38:00,
2013-05-07 12:43:00,73.7,51.7,30.14,SE,142,0.0,2.0,46,0.00,,---,0.00,VWS V14.01,2013-05-07 16:43:00,
2013-05-07 12:49:00,73.3,51.9,30.14,SSE,156,0.0,1.0,47,0.00,,---,0.00,VWS V14.01,2013-05-07 16:49:00,
2013-05-07 12:54:00,73.2,52.4,30.14,ESE,109,0.0,1.0,48,0.00,,---,0.00,VWS V14.01,2013-05-07 16:54:00,
2013-05-07 13:00:00,73.7,51.7,30.13,NNE,15,1.0,2.0,46,0.00,,---,0.00,VWS V14.01,2013-05-07 17:00:00,
2013-05-07 13:06:00,74.0,53.7,30.13,NW,320,0.0,1.0,49,0.00,,---,0.00,VWS V14.01,2013-05-07 17:06:00,
2013-05-07 13:11:00,74.2,52.7,30.13,NNW,333,0.0,0.0,47,0.00,,---,0.00,VWS V14.01,2013-05-07 17:11:00,
2013-05-07 13:16:00,74.2,54.4,30.13,SSE,165,0.0,3.0,50,0.00,,---,0.00,VWS V14.01,2013-05-07 17:16:00,
2013-05-07 13:21:00,74.4,53.5,30.13,SSW,194,3.0,5.0,48,0.00,,---,0.00,VWS V14.01,2013-05-07 17:21:00,
2013-05-07 13:26:00,73.9,54.1,30.13,South,177,4.0,4.0,50,0.00,,---,0.00,VWS V14.01,2013-05-07 17:26:00,
2013-05-07 13:31:00,73.7,53.4,30.13,West,278,0.0,2.0,49,0.00,,---,0.00,VWS V14.01,2013-05-07 17:31:00,
2013-05-07 13:36:00,74.2,53.3,30.13,SSW,211,0.0,3.0,48,0.00,,---,0.00,VWS V14.01,2013-05-07 17:36:00,
2013-05-07 13:42:00,73.5,53.2,30.13,West,272,0.0,1.0,49,0.00,,---,0.00,VWS V14.01,2013-05-07 17:42:00,
2013-05-07 13:47:00,73.0,53.3,30.12,NW,313,0.0,2.0,50,0.00,,---,0.00,VWS V14.01,2013-05-07 17:47:00,
2013-05-07 13:52:00,73.5,53.7,30.12,ENE,78,0.0,1.0,50,0.00,,---,0.00,VWS V14.01,2013-05-07 17:52:00,
2013-05-07 13:57:00,73.9,54.1,30.12,SW,221,0.0,3.0,50,0.00,,---,0.00,VWS V14.01,2013-05-07 17:57:00,
2013-05-07 14:03:00,73.7,55.0,30.12,SSW,197,2.0,2.0,52,0.00,,---,0.00,VWS V14.01,2013-05-07 18:03:00,
2013-05-07 14:08:00,73.2,54.0,30.13,SW,236,0.0,4.0,51,0.00,,---,0.00,VWS V14.01,2013-05-07 18:08:00,
2013-05-07 14:13:00,72.8,54.2,30.13,SSE,165,7.0,7.0,52,0.00,,---,0.00,VWS V14.01,2013-05-07 18:13:00,
2013-05-07 14:18:00,72.5,53.9,30.12,SSW,195,2.0,2.0,52,0.00,,---,0.00,VWS V14.01,2013-05-07 18:18:00,
2013-05-07 14:23:00,72.3,54.2,30.12,SE,146,0.0,3.0,53,0.00,,---,0.00,VWS V14.01,2013-05-07 18:23:00,
2013-05-07 14:27:00,72.5,53.9,30.12,SW,214,1.0,2.0,52,0.00,,---,0.00,VWS V14.01,2013-05-07 18:27:00,
2013-05-07 14:33:00,72.0,54.0,30.12,East,86,1.0,2.0,53,0.00,,---,0.00,VWS V14.01,2013-05-07 18:33:00,
2013-05-07 14:39:00,72.1,54.6,30.12,ESE,123,0.0,1.0,54,0.00,,---,0.00,VWS V14.01,2013-05-07 18:39:00,
2013-05-07 14:44:00,72.7,55.1,30.12,East,82,1.0,2.0,54,0.00,,---,0.00,VWS V14.01,2013-05-07 18:44:00,
2013-05-07 14:49:00,73.2,55.6,30.12,SE,128,0.0,3.0,54,0.00,,---,0.00,VWS V14.01,2013-05-07 18:49:00,
2013-05-07 14:54:00,73.2,55.1,30.12,SSW,207,1.0,2.0,53,0.00,,---,0.00,VWS V14.01,2013-05-07 18:54:00,
2013-05-07 14:59:00,73.0,54.4,30.11,SSE,153,0.0,3.0,52,0.00,,---,0.00,VWS V14.01,2013-05-07 18:59:00,
2013-05-07 15:05:00,73.3,55.7,30.11,WNW,294,0.0,4.0,54,0.00,,---,0.00,VWS V14.01,2013-05-07 19:05:00,
2013-05-07 15:10:00,73.9,55.2,30.11,SE,133,1.0,2.0,52,0.00,,---,0.00,VWS V14.01,2013-05-07 19:10:00,
2013-05-07 15:15:00,73.7,53.9,30.11,ENE,73,1.0,6.0,50,0.00,,---,0.00,VWS V14.01,2013-05-07 19:15:00,
2013-05-07 15:20:00,73.7,54.5,30.10,SSE,150,1.0,1.0,51,0.00,,---,0.00,VWS V14.01,2013-05-07 19:20:00,
2013-05-07 15:25:00,73.9,54.7,30.10,South,188,2.0,3.0,51,0.00,,---,0.00,VWS V14.01,2013-05-07 19:25:00,
2013-05-07 15:30:00,73.5,54.3,30.10,South,188,1.0,4.0,51,0.00,,---,0.00,VWS V14.01,2013-05-07 19:30:00,
2013-05-07 15:35:00,73.2,54.5,30.11,South,174,5.0,5.0,52,0.00,,---,0.00,VWS V14.01,2013-05-07 19:35:00,
2013-05-07 15:40:00,73.7,55.0,30.11,South,175,2.0,3.0,52,0.00,,---,0.00,VWS V14.01,2013-05-07 19:40:00,
2013-05-07 15:46:00,73.9,54.1,30.10,NE,40,1.0,1.0,50,0.00,,---,0.00,VWS V14.01,2013-05-07 19:46:00,
2013-05-07 15:51:00,74.2,54.4,30.10,NW,315,0.0,5.0,50,0.00,,---,0.00,VWS V14.01,2013-05-07 19:51:00,
2013-05-07 15:57:00,74.2,54.4,30.10,SW,221,0.0,2.0,50,0.00,,---,0.00,VWS V14.01,2013-05-07 19:57:00,
2013-05-07 16:02:00,74.0,53.7,30.10,South,186,0.0,2.0,49,0.00,,---,0.00,VWS V14.01,2013-05-07 20:02:00,
2013-05-07 16:07:00,73.7,53.9,30.10,SSW,192,3.0,3.0,50,0.00,,---,0.00,VWS V14.01,2013-05-07 20:07:00,
2013-05-07 16:12:00,73.3,54.6,30.10,SSW,198,1.0,6.0,52,0.00,,---,0.00,VWS V14.01,2013-05-07 20:12:00,
2013-05-07 16:17:00,72.7,55.1,30.10,South,172,0.0,2.0,54,0.00,,---,0.00,VWS V14.01,2013-05-07 20:17:00,
2013-05-07 16:22:00,72.1,54.6,30.09,SSW,201,1.0,3.0,54,0.00,,---,0.00,VWS V14.01,2013-05-07 20:22:00,
2013-05-07 16:27:00,72.3,55.2,30.10,WNW,284,0.0,1.0,55,0.00,,---,0.00,VWS V14.01,2013-05-07 20:27:00,
2013-05-07 16:32:00,72.8,54.7,30.09,SSE,164,2.0,3.0,53,0.00,,---,0.00,VWS V14.01,2013-05-07 20:32:00,
2013-05-07 16:38:00,73.0,54.4,30.09,South,188,2.0,4.0,52,0.00,,---,0.00,VWS V14.01,2013-05-07 20:38:00,
2013-05-07 16:43:00,73.5,54.3,30.10,SE,139,1.0,2.0,51,0.00,,---,0.00,VWS V14.01,2013-05-07 20:43:00,
2013-05-07 16:48:00,73.3,54.6,30.09,South,178,1.0,3.0,52,0.00,,---,0.00,VWS V14.01,2013-05-07 20:48:00,
2013-05-07 16:54:00,73.5,54.8,30.09,ESE,121,0.0,1.0,52,0.00,,---,0.00,VWS V14.01,2013-05-07 20:54:00,
2013-05-07 16:59:00,73.3,55.2,30.09,South,170,0.0,4.0,53,0.00,,---,0.00,VWS V14.01,2013-05-07 20:59:00,
2013-05-07 17:04:00,72.7,55.1,30.09,South,171,4.0,4.0,54,0.00,,---,0.00,VWS V14.01,2013-05-07 21:04:00,
2013-05-07 17:09:00,72.7,55.1,30.09,SW,218,1.0,1.0,54,0.00,,---,0.00,VWS V14.01,2013-05-07 21:09:00,
2013-05-07 17:14:00,72.7,55.1,30.09,SSW,206,0.0,1.0,54,0.00,,---,0.00,VWS V14.01,2013-05-07 21:14:00,
2013-05-07 17:19:00,72.5,54.4,30.09,SW,228,2.0,2.0,53,0.00,,---,0.00,VWS V14.01,2013-05-07 21:19:00,
2013-05-07 17:24:00,72.1,54.0,30.09,South,169,2.0,4.0,53,0.00,,---,0.00,VWS V14.01,2013-05-07 21:24:00,
2013-05-07 17:29:00,71.8,54.3,30.09,SSW,202,4.0,5.0,54,0.00,,---,0.00,VWS V14.01,2013-05-07 21:29:00,
2013-05-07 17:34:00,71.5,55.0,30.09,SSE,161,0.0,4.0,56,0.00,,---,0.00,VWS V14.01,2013-05-07 21:34:00,
2013-05-07 17:39:00,71.3,54.8,30.09,SW,217,1.0,1.0,56,0.00,,---,0.00,VWS V14.01,2013-05-07 21:39:00,
2013-05-07 17:44:00,71.1,54.6,30.09,SSE,160,0.0,3.0,56,0.00,,---,0.00,VWS V14.01,2013-05-07 21:44:00,
2013-05-07 17:50:00,70.8,55.3,30.09,South,178,0.0,1.0,58,0.00,,---,0.00,VWS V14.01,2013-05-07 21:50:00,
2013-05-07 17:56:00,70.6,54.6,30.09,SSE,157,0.0,6.0,57,0.00,,---,0.00,VWS V14.01,2013-05-07 21:56:00,
2013-05-07 18:01:00,70.3,54.8,30.09,SSW,200,1.0,4.0,58,0.00,,---,0.00,VWS V14.01,2013-05-07 22:01:00,
2013-05-07 18:06:00,69.8,54.4,30.09,SSE,168,4.0,4.0,58,0.00,,---,0.00,VWS V14.01,2013-05-07 22:06:00,
2013-05-07 18:11:00,69.6,54.7,30.09,South,186,0.0,0.0,59,0.00,,---,0.00,VWS V14.01,2013-05-07 22:11:00,
2013-05-07 18:16:00,69.6,54.2,30.09,SSW,199,0.0,2.0,58,0.00,,---,0.00,VWS V14.01,2013-05-07 22:16:00,
2013-05-07 18:21:00,69.6,54.7,30.09,SSW,199,0.0,1.0,59,0.00,,---,0.00,VWS V14.01,2013-05-07 22:21:00,
2013-05-07 18:26:00,69.8,54.8,30.09,South,171,2.0,5.0,59,0.00,,---,0.00,VWS V14.01,2013-05-07 22:26:00,
2013-05-07 18:32:00,70.1,54.7,30.10,SSE,154,2.0,2.0,58,0.00,,---,0.00,VWS V14.01,2013-05-07 22:32:00,
2013-05-07 18:37:00,70.1,54.7,30.09,SSE,151,3.0,4.0,58,0.00,,---,0.00,VWS V14.01,2013-05-07 22:37:00,
2013-05-07 18:42:00,70.3,55.3,30.10,SSW,212,0.0,2.0,59,0.00,,---,0.00,VWS V14.01,2013-05-07 22:42:00,
2013-05-07 18:47:00,70.3,55.3,30.10,WSW,257,0.0,2.0,59,0.00,,---,0.00,VWS V14.01,2013-05-07 22:47:00,
2013-05-07 18:52:00,70.3,55.3,30.10,WSW,257,0.0,0.0,59,0.00,,---,0.00,VWS V14.01,2013-05-07 22:52:00,
2013-05-07 18:58:00,70.1,55.1,30.10,ESE,107,0.0,0.0,59,0.00,,---,0.00,VWS V14.01,2013-05-07 22:58:00,
2013-05-07 19:03:00,69.8,54.8,30.10,SSE,161,2.0,3.0,59,0.00,,---,0.00,VWS V14.01,2013-05-07 23:03:00,
2013-05-07 19:08:00,69.4,54.9,30.10,South,175,0.0,0.0,60,0.00,,---,0.00,VWS V14.01,2013-05-07 23:08:00,
2013-05-07 19:14:00,69.1,55.1,30.10,South,176,0.0,1.0,61,0.00,,---,0.00,VWS V14.01,2013-05-07 23:14:00,
2013-05-07 19:20:00,68.9,55.4,30.11,SE,128,0.0,1.0,62,0.00,,---,0.00,VWS V14.01,2013-05-07 23:20:00,
2013-05-07 19:25:00,68.6,55.1,30.11,SE,128,0.0,0.0,62,0.00,,---,0.00,VWS V14.01,2013-05-07 23:25:00,
2013-05-07 19:30:00,68.4,54.9,30.11,SE,126,0.0,0.0,62,0.00,,---,0.00,VWS V14.01,2013-05-07 23:30:00,
2013-05-07 19:35:00,68.1,55.0,30.11,SE,126,0.0,0.0,63,0.00,,---,0.00,VWS V14.01,2013-05-07 23:35:00,
2013-05-07 19:40:00,67.8,55.2,30.11,SE,126,0.0,0.0,64,0.00,,---,0.00,VWS V14.01,2013-05-07 23:40:00,
2013-05-07 19:45:00,67.4,54.8,30.11,SE,126,0.0,0.0,64,0.00,,---,0.00,VWS V14.01,2013-05-07 23:45:00,
2013-05-07 19:51:00,67.1,55.0,30.11,SE,126,0.0,0.0,65,0.00,,---,0.00,VWS V14.01,2013-05-07 23:51:00,
2013-05-07 19:56:00,66.8,54.7,30.11,ESE,122,0.0,0.0,65,0.00,,---,0.00,VWS V14.01,2013-05-07 23:56:00,
2013-05-07 20:02:00,66.4,54.7,30.11,ESE,122,0.0,0.0,66,0.00,,---,0.00,VWS V14.01,2013-05-08 00:02:00,
2013-05-07 20:07:00,66.1,54.8,30.11,ESE,122,0.0,0.0,67,0.00,,---,0.00,VWS V14.01,2013-05-08 00:07:00,
2013-05-07 20:12:00,65.6,54.8,30.11,East,94,0.0,3.0,68,0.00,,---,0.00,VWS V14.01,2013-05-08 00:12:00,
2013-05-07 20:17:00,65.2,54.8,30.12,East,94,0.0,0.0,69,0.00,,---,0.00,VWS V14.01,2013-05-08 00:17:00,
2013-05-07 20:23:00,64.7,54.3,30.12,East,94,0.0,0.0,69,0.00,,---,0.00,VWS V14.01,2013-05-08 00:23:00,
2013-05-07 20:28:00,64.3,54.3,30.12,East,94,0.0,0.0,70,0.00,,---,0.00,VWS V14.01,2013-05-08 00:28:00,
2013-05-07 20:33:00,63.9,54.3,30.12,East,94,0.0,0.0,71,0.00,,---,0.00,VWS V14.01,2013-05-08 00:33:00,
2013-05-07 20:39:00,63.5,54.3,30.13,East,92,0.0,0.0,72,0.00,,---,0.00,VWS V14.01,2013-05-08 00:39:00,
2013-05-07 20:45:00,63.2,54.0,30.13,East,92,0.0,0.0,72,0.00,,---,0.00,VWS V14.01,2013-05-08 00:45:00,
2013-05-07 20:50:00,62.9,54.1,30.13,East,92,0.0,0.0,73,0.00,,---,0.00,VWS V14.01,2013-05-08 00:50:00,
2013-05-07 20:55:00,62.6,54.2,30.13,East,92,0.0,0.0,74,0.00,,---,0.00,VWS V14.01,2013-05-08 00:55:00,
2013-05-07 21:00:00,62.4,54.0,30.12,East,92,0.0,0.0,74,0.00,,---,0.00,VWS V14.01,2013-05-08 01:00:00,
2013-05-07 21:06:00,62.3,54.3,30.13,East,92,0.0,0.0,75,0.00,,---,0.00,VWS V14.01,2013-05-08 01:06:00,
2013-05-07 21:11:00,62.0,54.4,30.13,East,92,0.0,0.0,76,0.00,,---,0.00,VWS V14.01,2013-05-08 01:11:00,
2013-05-07 21:16:00,61.8,54.5,30.13,East,92,0.0,0.0,77,0.00,,---,0.00,VWS V14.01,2013-05-08 01:16:00,
2013-05-07 21:21:00,61.5,54.2,30.13,East,92,0.0,0.0,77,0.00,,---,0.00,VWS V14.01,2013-05-08 01:21:00,
2013-05-07 21:26:00,61.3,54.4,30.13,East,92,0.0,0.0,78,0.00,,---,0.00,VWS V14.01,2013-05-08 01:26:00,
2013-05-07 21:32:00,61.2,54.3,30.13,East,92,0.0,0.0,78,0.00,,---,0.00,VWS V14.01,2013-05-08 01:32:00,
2013-05-07 21:37:00,61.0,54.5,30.14,East,92,0.0,0.0,79,0.00,,---,0.00,VWS V14.01,2013-05-08 01:37:00,
2013-05-07 21:43:00,60.9,54.7,30.14,East,92,0.0,0.0,80,0.00,,---,0.00,VWS V14.01,2013-05-08 01:43:00,
2013-05-07 21:48:00,60.7,54.5,30.14,East,92,0.0,0.0,80,0.00,,---,0.00,VWS V14.01,2013-05-08 01:48:00,
2013-05-07 21:53:00,60.5,54.3,30.14,East,92,0.0,0.0,80,0.00,,---,0.00,VWS V14.01,2013-05-08 01:53:00,
2013-05-07 21:59:00,60.5,54.7,30.14,East,92,0.0,0.0,81,0.00,,---,0.00,VWS V14.01,2013-05-08 01:59:00,
2013-05-07 22:04:00,60.4,54.5,30.14,East,92,0.0,0.0,81,0.00,,---,0.00,VWS V14.01,2013-05-08 02:04:00,
2013-05-07 22:09:00,60.2,54.7,30.14,East,92,0.0,0.0,82,0.00,,---,0.00,VWS V14.01,2013-05-08 02:09:00,
2013-05-07 22:15:00,60.1,54.6,30.15,East,92,0.0,0.0,82,0.00,,---,0.00,VWS V14.01,2013-05-08 02:15:00,
2013-05-07 22:21:00,59.9,54.7,30.15,East,92,0.0,0.0,83,0.00,,---,0.00,VWS V14.01,2013-05-08 02:21:00,
2013-05-07 22:26:00,59.9,54.7,30.15,East,92,0.0,0.0,83,0.00,,---,0.00,VWS V14.01,2013-05-08 02:26:00,
2013-05-07 22:31:00,59.8,54.6,30.14,East,92,0.0,0.0,83,0.00,,---,0.00,VWS V14.01,2013-05-08 02:31:00,
2013-05-07 22:36:00,59.6,54.4,30.14,East,92,0.0,0.0,83,0.00,,---,0.00,VWS V14.01,2013-05-08 02:36:00,
2013-05-07 22:41:00,59.6,54.4,30.14,East,92,0.0,0.0,83,0.00,,---,0.00,VWS V14.01,2013-05-08 02:41:00,
2013-05-07 22:46:00,59.5,54.7,30.14,East,92,0.0,0.0,84,0.00,,---,0.00,VWS V14.01,2013-05-08 02:46:00,
2013-05-07 22:51:00,59.5,54.7,30.15,East,92,0.0,0.0,84,0.00,,---,0.00,VWS V14.01,2013-05-08 02:51:00,
2013-05-07 22:56:00,59.3,54.5,30.14,East,92,0.0,0.0,84,0.00,,---,0.00,VWS V14.01,2013-05-08 02:56:00,
2013-05-07 23:01:00,59.3,54.5,30.14,East,92,0.0,0.0,84,0.00,,---,0.00,VWS V14.01,2013-05-08 03:01:00,
2013-05-07 23:06:00,59.3,54.5,30.14,East,92,0.0,0.0,84,0.00,,---,0.00,VWS V14.01,2013-05-08 03:06:00,
2013-05-07 23:11:00,59.3,54.8,30.14,East,92,0.0,0.0,85,0.00,,---,0.00,VWS V14.01,2013-05-08 03:11:00,
2013-05-07 23:16:00,59.2,54.7,30.14,East,92,0.0,0.0,85,0.00,,---,0.00,VWS V14.01,2013-05-08 03:16:00,
2013-05-07 23:22:00,59.2,54.7,30.14,East,92,0.0,0.0,85,0.00,,---,0.00,VWS V14.01,2013-05-08 03:22:00,
2013-05-07 23:27:00,59.2,54.7,30.14,East,92,0.0,0.0,85,0.00,,---,0.00,VWS V14.01,2013-05-08 03:27:00,
2013-05-07 23:33:00,59.0,54.5,30.14,East,92,0.0,0.0,85,0.00,,---,0.00,VWS V14.01,2013-05-08 03:33:00,
2013-05-07 23:38:00,59.0,54.5,30.14,East,92,0.0,0.0,85,0.00,,---,0.00,VWS V14.01,2013-05-08 03:38:00,
2013-05-07 23:43:00,58.9,54.4,30.14,East,92,0.0,0.0,85,0.00,,---,0.00,VWS V14.01,2013-05-08 03:43:00,
2013-05-07 23:48:00,58.9,54.4,30.13,East,92,0.0,0.0,85,0.00,,---,0.00,VWS V14.01,2013-05-08 03:48:00,
2013-05-07 23:53:00,58.7,54.2,30.13,East,92,0.0,0.0,85,0.00,,---,0.00,VWS V14.01,2013-05-08 03:53:00,
2013-05-07 23:58:00,58.7,54.2,30.13,East,92,0.0,0.0,85,0.00,,---,0.00,VWS V14.01,2013-05-08 03:58:00,